Chidester, AR (71726)

4:58 AM CDT on May 23, 2015 (GMT -0500)
RAWS | | Change Station
CLOSE
Current Station
Personal Weather Station
Location: Bluff City, AR
Elevation: 359 ft
Nearby Weather Stations
Active Advisory: Flood Warning Active Notice: Record Report

Elev 359 ft 33.69 °N, 93.16 °W | Updated 48 minutes ago

Mostly Cloudy
Mostly Cloudy
57 °F
Feels Like 57 °F
N
1
Wind Variable Wind from ENE
Gusts 4.0 mph

Today
High -- | Low -- °F
--% Chance of Precip.
Yesterday
High -- | Low -- °F
Precip. -- in
6:06 AM 8:11 PM
Waxing Crescent, 28% visible
Pressure 30.21 in
Visibility 9.0 miles
Clouds Mostly Cloudy 2900 ft
Dew Point 57 °F
Humidity 100%
Rainfall in
Snow Depth Not available.
UV 0 out of 12
Pollen 5.10 out of 12
Air Quality Not available.
Flu Activity No Activity
METAR KCDH 230935Z AUTO 00000KT 9SM BKN029 15/13 A3021 RMK AO2

More Conditions Fewer Conditions

Pressure 30.21 in
Visibility 9.0 miles
Clouds Mostly Cloudy 2900 ft
Dew Point 57 °F
Humidity 100%
Rainfall in
Snow Depth Not available.
UV 0 out of 12
Pollen 5.10 out of 12
Air Quality Not available.
Flu Activity No Activity
METAR KCDH 230935Z AUTO 00000KT 9SM BKN029 15/13 A3021 RMK AO2

More Conditions Fewer Conditions

10-Day Weather Forecast

Almanac

Astronomy

May. 23, 2015 Rise Set
Actual Time
Civil Twilight
Nautical Twilight
Astronomical Twilight
Moon
Length of Visible Light
Length of Day
Tomorrow will be .
, % of the Moon is Illuminated

Today's Extremes

State Highs State Lows

Community

WunderPhotos

Upload Photos

1,823,405 photos uploaded!

WunderBlogs® & News

Nearby

Air Quality

  Air Quality AQ Index Pollutant
Not available.

Snow Depth

Station Depth Elevation

Earthquake Activity

City Distance Mag. Time & Date
Minimum magnitude displayed is 2.5.

Coastal Water Temperatures

Place Temperature

Stations

Nearby Weather Stations

Station Location Temp. Windchill Dew Point Humidity Wind Precip. Elev Updated Type
                   
Flood Warning
Statement as of 9:53 PM CDT on May 22, 2015

The Flood Warning continues for
the Ouachita River at Camden.
* Until further notice... or until the warning is cancelled.
* At 9:30 PM Friday the stage was 31.0 feet.
* Minor flooding is occurring and minor flooding is forecast.
* Flood stage is 26.0 feet.
* Forecast... the river will continue rising to near 31.3 feet by
early Sunday morning.
* Impacts at 30.0 feet... State Highway 7 north of Camden floods, with
detours nearby. Portions of Sandy Beach Park will flood. Some
County roads north and east of Camden begin to flood.


             Fld observed forecast 7 am
location stg stg day time Sat sun Mon Tue Wed

Ouachita River
Camden 26 31.0 Fri 09 PM 31.1 31.3 30.7 30.3 30.0




Lat... Lon 3329 9261 3344 9280 3363 9289 3367 9275
3350 9264 3338 9247